Time;durP1;ratioP1;P1;durP2;ratioP2;P2;SDS_P1;SDS_P2;PMS_P1;PMS_P2;Temp;Humidity;BMP_temperature;BMP_pressure;BME280_temperature;BME280_humidity;BME280_pressure;Samples;Min_cycle;Max_cycle;Signal;HPM_P1;HPM_P2
2024/01/18 00:00:27;;;;;;;30.02;17.73;;;;;;;;;;5038397;28;20505;-84
2024/01/18 00:02:53;;;;;;;35.42;19.08;;;;;;;;;;5021676;28;20140;-84
2024/01/18 00:05:19;;;;;;;30.38;17.38;;;;;;;;;;5034413;28;20025;-84
2024/01/18 00:07:44;;;;;;;31.48;17.77;;;;;;;;;;5018981;28;20041;-83
2024/01/18 00:10:10;;;;;;;30.55;16.98;;;;;;;;;;5026007;28;20496;-84
2024/01/18 00:12:37;;;;;;;32.25;18.58;;;;;;;;;;5036743;28;20431;-85
2024/01/18 00:15:03;;;;;;;31.88;16.92;;;;;;;;;;5034549;28;20107;-84
2024/01/18 00:17:28;;;;;;;29.67;17.85;;;;;;;;;;5034779;28;20033;-84
2024/01/18 00:19:54;;;;;;;31.77;18.50;;;;;;;;;;5020473;28;20090;-84
2024/01/18 00:22:20;;;;;;;29.48;16.50;;;;;;;;;;5038938;28;20119;-84
2024/01/18 00:24:45;;;;;;;28.52;17.13;;;;;;;;;;5022632;28;20065;-83
2024/01/18 00:27:11;;;;;;;32.08;17.05;;;;;;;;;;5035308;28;20049;-84
2024/01/18 00:29:36;;;;;;;30.38;16.65;;;;;;;;;;5035541;28;20511;-82
2024/01/18 00:32:01;;;;;;;29.65;17.10;;;;;;;;;;5019485;28;20059;-83
2024/01/18 00:34:28;;;;;;;31.95;16.88;;;;;;;;;;5036059;28;20037;-83
2024/01/18 00:36:53;;;;;;;32.83;17.50;;;;;;;;;;5024594;28;20033;-83
2024/01/18 00:39:20;;;;;;;31.17;17.23;;;;;;;;;;5021458;28;20052;-84
2024/01/18 00:41:46;;;;;;;32.42;18.02;;;;;;;;;;5021760;28;20052;-84
2024/01/18 00:44:12;;;;;;;32.45;17.23;;;;;;;;;;5036208;28;20124;-83
2024/01/18 00:46:37;;;;;;;34.33;18.60;;;;;;;;;;5035781;28;20905;-83
2024/01/18 00:49:02;;;;;;;31.65;17.77;;;;;;;;;;5034987;28;20037;-83
2024/01/18 00:51:28;;;;;;;28.92;16.85;;;;;;;;;;5038480;28;20043;-83
2024/01/18 00:53:53;;;;;;;27.25;17.20;;;;;;;;;;5037039;28;20032;-84
2024/01/18 00:56:18;;;;;;;26.77;16.25;;;;;;;;;;5017466;28;20029;-83
2024/01/18 00:58:44;;;;;;;29.13;16.50;;;;;;;;;;5034843;28;20540;-83
2024/01/18 01:01:10;;;;;;;30.58;16.65;;;;;;;;;;5033118;28;20397;-84
2024/01/18 01:03:35;;;;;;;30.55;17.05;;;;;;;;;;5036792;28;20693;-84
2024/01/18 01:06:01;;;;;;;28.67;16.80;;;;;;;;;;5034204;28;20029;-83
2024/01/18 01:08:27;;;;;;;31.63;16.80;;;;;;;;;;5017718;28;20472;-83
2024/01/18 01:10:52;;;;;;;29.85;16.63;;;;;;;;;;5034390;28;20034;-83
2024/01/18 01:13:17;;;;;;;30.65;16.48;;;;;;;;;;5041461;28;20039;-84
2024/01/18 01:15:43;;;;;;;28.27;16.52;;;;;;;;;;5035291;28;20108;-83
2024/01/18 01:18:10;;;;;;;29.90;17.30;;;;;;;;;;5036960;28;20053;-83
2024/01/18 01:20:35;;;;;;;28.60;16.60;;;;;;;;;;5035717;28;20048;-84
2024/01/18 01:23:01;;;;;;;27.33;16.30;;;;;;;;;;5043878;28;20626;-84
2024/01/18 01:25:26;;;;;;;32.45;16.63;;;;;;;;;;5031620;28;20038;-83
2024/01/18 01:28:11;;;;;;;30.13;17.40;;;;;;;;;;5034779;28;20382;-83
2024/01/18 01:30:37;;;;;;;27.58;15.93;;;;;;;;;;4958946;28;20039;-83
2024/01/18 01:33:02;;;;;;;27.88;16.60;;;;;;;;;;4960755;28;20053;-83
2024/01/18 01:35:28;;;;;;;31.33;16.65;;;;;;;;;;4948861;28;20097;-84
2024/01/18 01:37:53;;;;;;;29.52;15.35;;;;;;;;;;4948441;28;20458;-84
2024/01/18 01:40:19;;;;;;;29.98;16.52;;;;;;;;;;4958386;28;20046;-83
2024/01/18 01:42:44;;;;;;;30.20;16.30;;;;;;;;;;4927009;28;20035;-83
2024/01/18 01:45:10;;;;;;;31.02;15.65;;;;;;;;;;4958947;28;20039;-83
2024/01/18 01:47:35;;;;;;;26.70;15.57;;;;;;;;;;4946441;28;20049;-83
2024/01/18 01:50:01;;;;;;;27.02;15.85;;;;;;;;;;4958337;28;20050;-83
2024/01/18 01:52:29;;;;;;;29.55;16.17;;;;;;;;;;4948260;28;20047;-83
2024/01/18 01:54:54;;;;;;;;;;;;;;;;;;4963227;28;20034;-83
2024/01/18 01:57:20;;;;;;;28.65;15.32;;;;;;;;;;4925965;28;19921;-82
2024/01/18 01:59:46;;;;;;;25.90;15.43;;;;;;;;;;4958654;28;20053;-83
2024/01/18 02:02:12;;;;;;;28.33;16.20;;;;;;;;;;4931322;28;20047;-83
2024/01/18 02:04:37;;;;;;;25.35;15.32;;;;;;;;;;4948250;28;20511;-83
2024/01/18 02:07:03;;;;;;;29.08;15.60;;;;;;;;;;4968289;28;20378;-84
2024/01/18 02:09:29;;;;;;;25.42;14.65;;;;;;;;;;5041961;28;20067;-83
2024/01/18 02:11:54;;;;;;;27.95;15.32;;;;;;;;;;5034978;28;20566;-84
2024/01/18 02:14:20;;;;;;;27.75;15.18;;;;;;;;;;5020290;28;20041;-83
2024/01/18 02:16:45;;;;;;;26.55;15.55;;;;;;;;;;5027805;28;20508;-84
2024/01/18 02:19:10;;;;;;;27.52;15.57;;;;;;;;;;5040087;28;20082;-84
2024/01/18 02:21:37;;;;;;;25.80;14.85;;;;;;;;;;5039515;28;20042;-83
2024/01/18 02:24:23;;;;;;;31.35;15.50;;;;;;;;;;5037686;28;20034;-83
2024/01/18 02:26:48;;;;;;;26.20;15.18;;;;;;;;;;5022630;28;20452;-83
2024/01/18 02:29:14;;;;;;;28.15;15.48;;;;;;;;;;5040541;28;20124;-83
2024/01/18 02:31:39;;;;;;;26.67;15.60;;;;;;;;;;5039288;28;20116;-84
2024/01/18 02:34:09;;;;;;;28.23;15.38;;;;;;;;;;5038408;28;20045;-83
2024/01/18 02:36:34;;;;;;;26.48;15.40;;;;;;;;;;5036319;28;20451;-83
2024/01/18 02:38:59;;;;;;;29.52;15.43;;;;;;;;;;5037278;28;20033;-83
2024/01/18 02:41:25;;;;;;;28.65;15.55;;;;;;;;;;5037723;28;20033;-83
2024/01/18 02:43:51;;;;;;;27.17;15.00;;;;;;;;;;5039146;28;20056;-84
2024/01/18 02:46:17;;;;;;;28.75;15.40;;;;;;;;;;5034479;28;20026;-84
2024/01/18 02:48:43;;;;;;;27.45;15.20;;;;;;;;;;5046432;28;20041;-84
2024/01/18 02:51:08;;;;;;;31.55;16.15;;;;;;;;;;5023834;28;20513;-84
2024/01/18 02:53:33;;;;;;;27.90;16.55;;;;;;;;;;5037342;28;20439;-83
2024/01/18 02:55:59;;;;;;;26.40;15.35;;;;;;;;;;5036820;28;20488;-84
2024/01/18 02:58:24;;;;;;;29.98;15.55;;;;;;;;;;5045681;28;20252;-83
2024/01/18 03:00:49;;;;;;;30.95;16.08;;;;;;;;;;5034896;28;20064;-83
2024/01/18 03:03:15;;;;;;;26.73;16.00;;;;;;;;;;5035936;28;20037;-83
2024/01/18 03:05:40;;;;;;;31.45;16.58;;;;;;;;;;5039136;28;20045;-83
2024/01/18 03:08:06;;;;;;;27.08;15.18;;;;;;;;;;5035299;28;20037;-83
2024/01/18 03:10:31;;;;;;;29.92;16.33;;;;;;;;;;5038731;28;20392;-84
2024/01/18 03:12:56;;;;;;;29.05;16.90;;;;;;;;;;5039998;28;20041;-84
2024/01/18 03:15:22;;;;;;;28.33;16.15;;;;;;;;;;5034920;28;20155;-83
2024/01/18 03:17:47;;;;;;;32.05;17.83;;;;;;;;;;5035893;28;20037;-84
2024/01/18 03:20:13;;;;;;;28.02;16.35;;;;;;;;;;5037634;28;20040;-83
2024/01/18 03:22:39;;;;;;;31.13;16.75;;;;;;;;;;5036234;28;20590;-84
2024/01/18 03:25:05;;;;;;;30.38;16.65;;;;;;;;;;5029865;28;20085;-84
2024/01/18 03:27:30;;;;;;;28.02;15.63;;;;;;;;;;5027112;28;20455;-83
2024/01/18 03:29:56;;;;;;;30.13;16.27;;;;;;;;;;5034803;28;20076;-84
2024/01/18 03:32:22;;;;;;;29.58;16.27;;;;;;;;;;5033980;28;20037;-84
2024/01/18 03:34:47;;;;;;;32.92;16.60;;;;;;;;;;5034727;28;20399;-84
2024/01/18 03:37:13;;;;;;;27.80;16.38;;;;;;;;;;5038737;28;20595;-83
2024/01/18 03:39:38;;;;;;;30.23;15.98;;;;;;;;;;5036845;28;20124;-83
2024/01/18 03:42:04;;;;;;;30.05;16.30;;;;;;;;;;5036382;28;20163;-84
2024/01/18 03:44:29;;;;;;;29.30;16.35;;;;;;;;;;5036751;28;20025;-83
2024/01/18 03:46:54;;;;;;;27.88;16.60;;;;;;;;;;5042856;28;20041;-84
2024/01/18 03:49:20;;;;;;;29.55;16.30;;;;;;;;;;5028028;28;20045;-84
2024/01/18 03:51:46;;;;;;;29.50;16.10;;;;;;;;;;5038727;28;20627;-84
2024/01/18 03:54:11;;;;;;;33.80;17.05;;;;;;;;;;5037482;28;20561;-84
2024/01/18 03:56:36;;;;;;;31.85;16.33;;;;;;;;;;5038657;28;20026;-84
2024/01/18 03:59:02;;;;;;;26.98;16.25;;;;;;;;;;5020511;28;20080;-83
2024/01/18 04:01:31;;;;;;;27.65;16.83;;;;;;;;;;5033481;28;20103;-84
2024/01/18 04:03:57;;;;;;;30.75;16.67;;;;;;;;;;5033286;28;20037;-84
2024/01/18 04:06:22;;;;;;;30.83;17.20;;;;;;;;;;5035619;28;20043;-84
2024/01/18 04:08:47;;;;;;;28.83;15.80;;;;;;;;;;5022661;28;20040;-85
2024/01/18 04:11:13;;;;;;;31.67;17.40;;;;;;;;;;5026087;28;20751;-84
2024/01/18 04:13:38;;;;;;;35.22;17.13;;;;;;;;;;5044484;28;20382;-84
2024/01/18 04:16:04;;;;;;;27.98;15.95;;;;;;;;;;5037439;28;20167;-84
2024/01/18 04:18:30;;;;;;;30.77;16.45;;;;;;;;;;5038662;28;20039;-84
2024/01/18 04:20:55;;;;;;;28.42;16.25;;;;;;;;;;5043991;28;20033;-84
2024/01/18 04:23:21;;;;;;;29.27;16.48;;;;;;;;;;5026916;28;20120;-84
2024/01/18 04:25:53;;;;;;;32.83;16.27;;;;;;;;;;5020616;28;20033;-84
2024/01/18 04:28:19;;;;;;;31.77;16.83;;;;;;;;;;5037391;28;20041;-84
2024/01/18 04:30:45;;;;;;;30.42;16.80;;;;;;;;;;5016973;28;20060;-84
2024/01/18 04:33:10;;;;;;;35.17;16.77;;;;;;;;;;5019805;28;20464;-84
2024/01/18 04:35:35;;;;;;;32.63;16.88;;;;;;;;;;5036867;28;20028;-84
2024/01/18 04:38:01;;;;;;;32.40;16.55;;;;;;;;;;5034495;28;20060;-83
2024/01/18 04:40:26;;;;;;;26.27;15.90;;;;;;;;;;5021481;28;20127;-83
2024/01/18 04:42:52;;;;;;;31.50;16.75;;;;;;;;;;5022261;28;20076;-84
2024/01/18 04:45:18;;;;;;;28.75;16.27;;;;;;;;;;5037438;28;20111;-84
2024/01/18 04:47:43;;;;;;;32.63;17.02;;;;;;;;;;5037165;28;20041;-83
2024/01/18 04:50:09;;;;;;;29.38;16.85;;;;;;;;;;5037431;28;20508;-85
2024/01/18 04:52:34;;;;;;;28.65;16.77;;;;;;;;;;5023207;28;20025;-84
2024/01/18 04:55:04;;;;;;;33.10;16.50;;;;;;;;;;5023883;28;20048;-84
2024/01/18 04:57:30;;;;;;;34.38;16.88;;;;;;;;;;5035596;28;20439;-84
2024/01/18 04:59:55;;;;;;;26.90;16.65;;;;;;;;;;5037086;28;20087;-83
2024/01/18 05:02:20;;;;;;;28.75;16.67;;;;;;;;;;5034675;28;20044;-82
2024/01/18 05:04:46;;;;;;;28.35;15.77;;;;;;;;;;5036995;28;20033;-83
2024/01/18 05:07:11;;;;;;;31.48;17.08;;;;;;;;;;5032472;28;20128;-85
2024/01/18 05:09:37;;;;;;;27.98;15.98;;;;;;;;;;5037583;28;20060;-84
2024/01/18 05:12:07;;;;;;;31.83;17.00;;;;;;;;;;5033247;28;20043;-85
2024/01/18 05:14:32;;;;;;;30.50;17.23;;;;;;;;;;5036793;28;20521;-84
2024/01/18 05:17:03;;;;;;;29.95;17.08;;;;;;;;;;5019899;28;20120;-84
2024/01/18 05:19:30;;;;;;;30.50;16.65;;;;;;;;;;5019321;28;20025;-84
2024/01/18 05:21:55;;;;;;;28.20;15.95;;;;;;;;;;5026027;28;20076;-83
2024/01/18 05:24:20;;;;;;;33.30;17.25;;;;;;;;;;5020130;28;20833;-83
2024/01/18 05:26:46;;;;;;;29.55;16.10;;;;;;;;;;5021566;28;20041;-83
2024/01/18 05:29:11;;;;;;;29.00;16.58;;;;;;;;;;5025169;28;20053;-83
2024/01/18 05:31:37;;;;;;;32.00;17.33;;;;;;;;;;5036767;28;20485;-84
2024/01/18 05:34:02;;;;;;;32.88;17.63;;;;;;;;;;5027902;28;20543;-84
2024/01/18 05:36:28;;;;;;;29.58;16.85;;;;;;;;;;5033480;28;20064;-85
2024/01/18 05:38:54;;;;;;;26.50;15.55;;;;;;;;;;5033217;28;20034;-84
2024/01/18 05:41:19;;;;;;;31.35;17.20;;;;;;;;;;5034529;28;20420;-83
2024/01/18 05:43:47;;;;;;;30.52;17.60;;;;;;;;;;5033380;28;20033;-84
2024/01/18 05:46:13;;;;;;;32.10;16.77;;;;;;;;;;5036082;28;20037;-84
2024/01/18 05:48:38;;;;;;;31.70;17.02;;;;;;;;;;5016811;28;20037;-85
2024/01/18 05:51:04;;;;;;;32.67;17.55;;;;;;;;;;5034927;28;20140;-85
2024/01/18 05:53:29;;;;;;;32.28;17.27;;;;;;;;;;5039531;28;20052;-85
2024/01/18 05:55:55;;;;;;;32.95;17.75;;;;;;;;;;5042648;28;20117;-84
2024/01/18 05:58:20;;;;;;;30.67;16.60;;;;;;;;;;5043653;28;20044;-84
2024/01/18 06:00:46;;;;;;;34.10;17.65;;;;;;;;;;5040499;28;20041;-84
2024/01/18 06:03:11;;;;;;;31.95;16.90;;;;;;;;;;5028933;28;20057;-84
2024/01/18 06:05:36;;;;;;;33.47;17.40;;;;;;;;;;5042149;28;20045;-85
2024/01/18 06:08:02;;;;;;;30.00;17.08;;;;;;;;;;5028126;28;20064;-85
2024/01/18 06:10:27;;;;;;;30.20;17.60;;;;;;;;;;5034686;28;20048;-86
2024/01/18 06:12:53;;;;;;;31.95;17.52;;;;;;;;;;5041931;28;20481;-85
2024/01/18 06:15:19;;;;;;;32.42;17.17;;;;;;;;;;5023129;28;20037;-85
2024/01/18 06:17:44;;;;;;;31.50;17.77;;;;;;;;;;5040807;28;20043;-86
2024/01/18 06:20:10;;;;;;;32.53;17.83;;;;;;;;;;5043051;28;20512;-86
2024/01/18 06:22:35;;;;;;;40.20;17.77;;;;;;;;;;5044657;28;20044;-86
2024/01/18 06:25:00;;;;;;;32.10;18.10;;;;;;;;;;5032046;28;20032;-84
2024/01/18 06:27:26;;;;;;;33.22;16.83;;;;;;;;;;5025077;28;20500;-86
2024/01/18 06:29:52;;;;;;;29.27;17.50;;;;;;;;;;5036507;28;20481;-86
2024/01/18 06:32:18;;;;;;;31.27;17.58;;;;;;;;;;5045799;28;20029;-86
2024/01/18 06:34:43;;;;;;;33.70;17.08;;;;;;;;;;5022477;28;20042;-86
2024/01/18 06:37:08;;;;;;;35.83;17.73;;;;;;;;;;5022224;28;20151;-84
2024/01/18 06:39:34;;;;;;;34.25;16.95;;;;;;;;;;5035425;28;20110;-85
2024/01/18 06:41:59;;;;;;;31.88;17.50;;;;;;;;;;5024607;28;20059;-85
2024/01/18 06:44:24;;;;;;;34.38;17.33;;;;;;;;;;5025872;28;20037;-86
2024/01/18 06:46:50;;;;;;;35.78;17.67;;;;;;;;;;5046780;28;20158;-85
2024/01/18 06:49:15;;;;;;;29.63;16.75;;;;;;;;;;5042020;28;20132;-85
2024/01/18 06:51:41;;;;;;;36.50;17.42;;;;;;;;;;5029984;28;20183;-85
2024/01/18 06:54:06;;;;;;;29.88;17.88;;;;;;;;;;5038716;28;20036;-85
2024/01/18 06:56:32;;;;;;;31.65;16.95;;;;;;;;;;5029702;28;20492;-85
2024/01/18 06:58:57;;;;;;;31.77;16.63;;;;;;;;;;5026875;28;20033;-84
2024/01/18 07:01:23;;;;;;;33.97;18.40;;;;;;;;;;5035048;28;20040;-84
2024/01/18 07:03:49;;;;;;;30.95;17.42;;;;;;;;;;5030590;28;20036;-85
2024/01/18 07:06:15;;;;;;;32.10;17.73;;;;;;;;;;5021161;28;20025;-84
2024/01/18 07:08:41;;;;;;;35.60;17.20;;;;;;;;;;5028306;28;20042;-82
2024/01/18 07:11:06;;;;;;;33.83;17.90;;;;;;;;;;5028080;28;20808;-82
2024/01/18 07:13:31;;;;;;;30.83;17.45;;;;;;;;;;5036393;28;20129;-83
2024/01/18 07:15:57;;;;;;;29.75;17.08;;;;;;;;;;5038099;28;21028;-83
2024/01/18 07:18:22;;;;;;;30.90;16.92;;;;;;;;;;5020577;28;20392;-84
2024/01/18 07:20:48;;;;;;;32.80;17.90;;;;;;;;;;5029389;28;20645;-84
2024/01/18 07:23:13;;;;;;;31.83;17.25;;;;;;;;;;5022396;28;20045;-83
2024/01/18 07:25:39;;;;;;;31.02;17.63;;;;;;;;;;5028480;28;20128;-84
2024/01/18 07:28:05;;;;;;;30.67;17.27;;;;;;;;;;5020999;28;20052;-83
2024/01/18 07:30:30;;;;;;;37.33;18.02;;;;;;;;;;5039153;28;20575;-85
2024/01/18 07:32:55;;;;;;;30.45;16.70;;;;;;;;;;5036966;28;20060;-83
2024/01/18 07:35:21;;;;;;;33.83;17.95;;;;;;;;;;5035610;28;20060;-83
2024/01/18 07:37:46;;;;;;;35.00;18.27;;;;;;;;;;5024037;28;20044;-82
2024/01/18 07:40:12;;;;;;;32.03;17.25;;;;;;;;;;5018266;28;20087;-83
2024/01/18 07:42:37;;;;;;;35.05;17.83;;;;;;;;;;5019041;28;20028;-83
2024/01/18 07:45:03;;;;;;;33.42;17.85;;;;;;;;;;5033920;28;20099;-83
2024/01/18 07:47:28;;;;;;;32.00;17.67;;;;;;;;;;5019297;28;20037;-83
2024/01/18 07:49:54;;;;;;;35.25;18.60;;;;;;;;;;5036998;28;20599;-84
2024/01/18 07:52:20;;;;;;;35.13;19.25;;;;;;;;;;5033463;28;20475;-83
2024/01/18 07:54:46;;;;;;;30.88;18.00;;;;;;;;;;5044548;28;20030;-84
2024/01/18 07:57:12;;;;;;;35.67;20.05;;;;;;;;;;5022284;28;20032;-83
2024/01/18 07:59:38;;;;;;;31.53;18.73;;;;;;;;;;5037395;28;20033;-83
2024/01/18 08:02:03;;;;;;;31.02;17.63;;;;;;;;;;5045042;28;20040;-84
2024/01/18 08:04:29;;;;;;;31.65;17.02;;;;;;;;;;5036584;28;20069;-84
2024/01/18 08:06:55;;;;;;;31.27;18.20;;;;;;;;;;5019949;28;20136;-84
2024/01/18 08:09:21;;;;;;;34.13;19.25;;;;;;;;;;5034846;28;20042;-84
2024/01/18 08:11:46;;;;;;;35.33;18.70;;;;;;;;;;5034623;28;20032;-84
2024/01/18 08:14:12;;;;;;;33.45;18.67;;;;;;;;;;5035167;28;20032;-84
2024/01/18 08:16:37;;;;;;;33.25;18.98;;;;;;;;;;5037197;28;20037;-83
2024/01/18 08:19:03;;;;;;;31.77;18.60;;;;;;;;;;5033741;28;20067;-84
2024/01/18 08:21:28;;;;;;;32.58;18.98;;;;;;;;;;5019045;28;20060;-84
2024/01/18 08:23:54;;;;;;;32.95;18.63;;;;;;;;;;5034595;28;20036;-83
2024/01/18 08:26:20;;;;;;;33.53;18.40;;;;;;;;;;5035624;28;20057;-83
2024/01/18 08:28:46;;;;;;;32.67;18.75;;;;;;;;;;5036638;28;20435;-84
2024/01/18 08:31:12;;;;;;;34.08;19.75;;;;;;;;;;5035813;28;20030;-84
2024/01/18 08:33:37;;;;;;;33.22;18.90;;;;;;;;;;5034523;28;20128;-84
2024/01/18 08:36:03;;;;;;;36.08;18.83;;;;;;;;;;5036496;28;20072;-84
2024/01/18 08:38:28;;;;;;;37.15;18.92;;;;;;;;;;5037479;28;20473;-84
2024/01/18 08:40:54;;;;;;;34.55;19.10;;;;;;;;;;5032813;28;20033;-84
2024/01/18 08:43:24;;;;;;;35.80;18.90;;;;;;;;;;5043795;28;20485;-84
2024/01/18 08:45:49;;;;;;;36.67;19.15;;;;;;;;;;5026589;28;20032;-85
2024/01/18 08:48:16;;;;;;;32.30;18.60;;;;;;;;;;5027123;28;20052;-83
2024/01/18 08:50:41;;;;;;;34.70;19.38;;;;;;;;;;5041822;28;20233;-84
2024/01/18 08:53:07;;;;;;;33.05;18.33;;;;;;;;;;5024207;28;20040;-83
2024/01/18 08:55:37;;;;;;;35.53;18.77;;;;;;;;;;5019306;28;20043;-83
2024/01/18 08:58:04;;;;;;;33.15;18.00;;;;;;;;;;5054499;28;20040;-83
2024/01/18 09:00:29;;;;;;;34.00;19.00;;;;;;;;;;5021754;28;20064;-81
2024/01/18 09:02:55;;;;;;;32.80;18.05;;;;;;;;;;5032072;28;20123;-82
2024/01/18 09:05:20;;;;;;;35.85;18.83;;;;;;;;;;5021440;28;20103;-82
2024/01/18 09:07:46;;;;;;;33.35;18.23;;;;;;;;;;5023805;28;20029;-83
2024/01/18 09:10:12;;;;;;;33.97;18.38;;;;;;;;;;5025301;28;20030;-83
2024/01/18 09:12:37;;;;;;;33.15;18.20;;;;;;;;;;5026597;28;20501;-83
2024/01/18 09:15:03;;;;;;;35.90;20.63;;;;;;;;;;5033614;28;20112;-84
2024/01/18 09:17:29;;;;;;;33.75;19.10;;;;;;;;;;5026953;28;20084;-84
2024/01/18 09:19:54;;;;;;;33.20;18.48;;;;;;;;;;5019994;28;20037;-83
2024/01/18 09:22:19;;;;;;;27.85;18.08;;;;;;;;;;5036988;28;20085;-83
2024/01/18 09:24:45;;;;;;;34.53;18.92;;;;;;;;;;5033703;28;20122;-83
2024/01/18 09:27:11;;;;;;;34.05;19.13;;;;;;;;;;5040950;28;20512;-82
2024/01/18 09:29:37;;;;;;;36.08;18.95;;;;;;;;;;5026255;28;20038;-83
2024/01/18 09:32:03;;;;;;;35.38;18.95;;;;;;;;;;5018968;28;20037;-84
2024/01/18 09:34:29;;;;;;;35.00;19.58;;;;;;;;;;5020199;28;20033;-83
2024/01/18 09:36:54;;;;;;;32.83;19.00;;;;;;;;;;5035876;28;20051;-82
2024/01/18 09:39:20;;;;;;;35.70;19.70;;;;;;;;;;5034930;28;20033;-84
2024/01/18 09:41:50;;;;;;;35.58;19.38;;;;;;;;;;5017324;28;20025;-85
2024/01/18 09:44:25;;;;;;;34.45;18.67;;;;;;;;;;5032921;28;20064;-85
2024/01/18 09:46:52;;;;;;;35.13;18.38;;;;;;;;;;5019851;28;20072;-84
2024/01/18 09:49:17;;;;;;;33.35;18.77;;;;;;;;;;5034331;28;20374;-84
2024/01/18 09:51:44;;;;;;;35.08;19.25;;;;;;;;;;5033362;28;20032;-84
2024/01/18 09:54:09;;;;;;;32.00;19.23;;;;;;;;;;5035568;28;20036;-85
2024/01/18 09:56:37;;;;;;;40.97;19.98;;;;;;;;;;5035797;28;20034;-84
2024/01/18 09:59:04;;;;;;;;;;;;;;;;;;5038342;28;20057;-84
2024/01/18 10:01:30;;;;;;;29.67;16.63;;;;;;;;;;5032447;28;19921;-85
2024/01/18 10:03:56;;;;;;;38.88;20.35;;;;;;;;;;5034745;28;20042;-85
2024/01/18 10:06:21;;;;;;;33.35;19.20;;;;;;;;;;5032439;28;20461;-84
2024/01/18 10:08:49;;;;;;;35.13;19.27;;;;;;;;;;5031755;28;20053;-84
2024/01/18 10:11:15;;;;;;;32.45;19.13;;;;;;;;;;5034711;28;20029;-84
2024/01/18 10:13:54;;;;;;;33.53;18.75;;;;;;;;;;5024323;28;20179;-83
2024/01/18 10:16:32;;;;;;;35.80;18.60;;;;;;;;;;5036575;28;20040;-85
2024/01/18 10:19:02;;;;;;;31.85;18.38;;;;;;;;;;5037309;28;20046;-84
2024/01/18 10:21:28;;;;;;;31.15;19.08;;;;;;;;;;5035603;28;20060;-84
2024/01/18 10:23:54;;;;;;;36.55;20.02;;;;;;;;;;5044241;28;20122;-85
2024/01/18 10:26:27;;;;;;;35.30;20.38;;;;;;;;;;5033999;28;20432;-84
2024/01/18 10:28:53;;;;;;;32.95;19.33;;;;;;;;;;5036895;28;20037;-84
2024/01/18 10:31:18;;;;;;;34.13;19.83;;;;;;;;;;5025330;28;20036;-84
2024/01/18 10:33:47;;;;;;;35.45;19.63;;;;;;;;;;5043501;28;20053;-84
2024/01/18 10:36:13;;;;;;;38.92;19.38;;;;;;;;;;5025708;28;20033;-84
2024/01/18 10:38:41;;;;;;;36.17;19.63;;;;;;;;;;5039598;28;20041;-83
2024/01/18 10:41:08;;;;;;;35.40;19.25;;;;;;;;;;5038861;28;20120;-83
2024/01/18 10:43:34;;;;;;;37.17;19.05;;;;;;;;;;5036784;28;20120;-83
2024/01/18 10:46:00;;;;;;;40.45;20.20;;;;;;;;;;5045527;28;20116;-84
2024/01/18 10:48:27;;;;;;;33.63;19.30;;;;;;;;;;5038621;28;20040;-83
2024/01/18 10:50:53;;;;;;;31.65;19.13;;;;;;;;;;5028173;28;20021;-83
2024/01/18 10:53:20;;;;;;;30.63;18.63;;;;;;;;;;5037573;28;20029;-84
2024/01/18 10:55:45;;;;;;;32.00;17.95;;;;;;;;;;5034996;28;20044;-84
2024/01/18 10:58:11;;;;;;;31.48;18.27;;;;;;;;;;5040773;28;20025;-84
2024/01/18 11:00:36;;;;;;;32.97;19.10;;;;;;;;;;5041021;28;20496;-84
2024/01/18 11:03:03;;;;;;;33.45;19.27;;;;;;;;;;5034568;28;20140;-83
2024/01/18 11:05:29;;;;;;;32.80;18.87;;;;;;;;;;5030154;28;20036;-83
2024/01/18 11:07:55;;;;;;;34.72;19.40;;;;;;;;;;5034322;28;20279;-83
2024/01/18 11:10:22;;;;;;;37.63;19.90;;;;;;;;;;5037688;28;20539;-84
2024/01/18 11:12:49;;;;;;;34.63;19.38;;;;;;;;;;5036017;28;20072;-84
2024/01/18 11:15:15;;;;;;;37.22;19.63;;;;;;;;;;5034168;28;20353;-84
2024/01/18 11:17:47;;;;;;;31.83;19.27;;;;;;;;;;5026087;28;20035;-84
2024/01/18 11:20:13;;;;;;;37.15;20.35;;;;;;;;;;5024838;28;20045;-84
2024/01/18 11:22:39;;;;;;;33.42;19.23;;;;;;;;;;5032149;28;20497;-83
2024/01/18 11:25:10;;;;;;;34.70;18.25;;;;;;;;;;5029691;28;20116;-83
2024/01/18 11:27:43;;;;;;;36.83;19.58;;;;;;;;;;5017801;28;20451;-82
2024/01/18 11:30:14;;;;;;;36.53;20.05;;;;;;;;;;5037773;28;20137;-83
2024/01/18 11:32:40;;;;;;;34.42;19.67;;;;;;;;;;5009030;28;20132;-84
2024/01/18 11:35:11;;;;;;;35.75;19.30;;;;;;;;;;5007236;28;20094;-83
2024/01/18 11:37:36;;;;;;;36.55;20.05;;;;;;;;;;5019820;28;20025;-83
2024/01/18 11:40:06;;;;;;;32.90;19.48;;;;;;;;;;5028979;28;20033;-83
2024/01/18 11:42:33;;;;;;;34.70;20.80;;;;;;;;;;5038682;28;20038;-83
2024/01/18 11:45:12;;;;;;;35.42;19.65;;;;;;;;;;5029240;28;21833;-84
2024/01/18 11:47:38;;;;;;;33.33;18.52;;;;;;;;;;5038131;28;20045;-84
2024/01/18 11:50:05;;;;;;;37.28;20.10;;;;;;;;;;5038298;28;20068;-82
2024/01/18 11:52:33;;;;;;;31.77;18.95;;;;;;;;;;5038228;28;20029;-85
2024/01/18 11:54:59;;;;;;;33.50;19.83;;;;;;;;;;5028784;28;20143;-84
2024/01/18 11:57:25;;;;;;;35.55;19.30;;;;;;;;;;5024915;28;20060;-82
2024/01/18 11:59:52;;;;;;;34.33;19.05;;;;;;;;;;5040689;28;20043;-82
2024/01/18 12:02:20;;;;;;;31.90;18.60;;;;;;;;;;5038361;28;20034;-83
2024/01/18 12:04:45;;;;;;;34.05;19.50;;;;;;;;;;5036464;28;20281;-83
2024/01/18 12:07:11;;;;;;;34.05;18.77;;;;;;;;;;5043710;28;20044;-83
2024/01/18 12:09:37;;;;;;;33.85;19.05;;;;;;;;;;5036014;28;20060;-83
2024/01/18 12:12:04;;;;;;;32.22;19.25;;;;;;;;;;5035814;28;20037;-82
2024/01/18 12:14:29;;;;;;;31.05;19.38;;;;;;;;;;5039391;28;20032;-83
2024/01/18 12:16:55;;;;;;;31.63;18.77;;;;;;;;;;5033198;28;20383;-82
2024/01/18 12:19:29;;;;;;;34.25;19.10;;;;;;;;;;5020607;28;20037;-82
2024/01/18 12:21:55;;;;;;;34.30;19.52;;;;;;;;;;5035240;28;20039;-82
2024/01/18 12:24:20;;;;;;;33.40;18.88;;;;;;;;;;5028389;28;20038;-82
2024/01/18 12:26:46;;;;;;;33.75;20.13;;;;;;;;;;5033522;28;20540;-83
2024/01/18 12:29:12;;;;;;;36.25;19.20;;;;;;;;;;5037865;28;20064;-82
2024/01/18 12:31:37;;;;;;;36.95;19.45;;;;;;;;;;5020357;28;20041;-82
2024/01/18 12:34:03;;;;;;;35.45;18.80;;;;;;;;;;5020063;28;20038;-83
2024/01/18 12:36:28;;;;;;;33.13;20.17;;;;;;;;;;5025577;28;20785;-81
2024/01/18 12:38:54;;;;;;;31.25;19.33;;;;;;;;;;5035390;28;20426;-82
2024/01/18 12:41:20;;;;;;;34.03;19.02;;;;;;;;;;5034377;28;20029;-81
2024/01/18 12:43:46;;;;;;;31.60;17.02;;;;;;;;;;5028912;28;20116;-82
2024/01/18 12:46:12;;;;;;;32.75;19.33;;;;;;;;;;5033134;28;20163;-82
2024/01/18 12:48:37;;;;;;;32.80;18.58;;;;;;;;;;5015691;28;20040;-82
2024/01/18 12:51:03;;;;;;;30.95;18.05;;;;;;;;;;5023145;28;20040;-83
2024/01/18 12:53:29;;;;;;;33.67;18.40;;;;;;;;;;5033573;28;20037;-82
2024/01/18 12:55:54;;;;;;;32.20;17.60;;;;;;;;;;5032848;28;20036;-83
2024/01/18 12:58:22;;;;;;;31.67;18.70;;;;;;;;;;5023795;28;20036;-83
2024/01/18 13:00:53;;;;;;;32.58;18.33;;;;;;;;;;5021751;28;20051;-82
2024/01/18 13:03:21;;;;;;;29.95;18.08;;;;;;;;;;5022171;28;20104;-82
2024/01/18 13:05:47;;;;;;;;;;;;;;;;;;5036348;28;20037;-83
2024/01/18 13:08:15;;;;;;;30.38;17.85;;;;;;;;;;5038201;28;19921;-82
2024/01/18 13:10:41;;;;;;;31.95;17.80;;;;;;;;;;5027037;28;20493;-83
2024/01/18 13:13:08;;;;;;;30.35;18.23;;;;;;;;;;5045926;28;20083;-83
2024/01/18 13:15:34;;;;;;;30.35;18.00;;;;;;;;;;5034413;28;20523;-82
2024/01/18 13:18:07;;;;;;;31.98;18.88;;;;;;;;;;5034903;28;20053;-86
2024/01/18 13:20:32;;;;;;;33.08;19.83;;;;;;;;;;5034066;28;20501;-84
2024/01/18 13:22:57;;;;;;;41.20;19.58;;;;;;;;;;5039555;28;20081;-84
2024/01/18 13:25:23;;;;;;;34.08;19.85;;;;;;;;;;5022257;28;20468;-84
2024/01/18 13:27:48;;;;;;;34.38;20.10;;;;;;;;;;5021999;28;20036;-84
2024/01/18 13:30:14;;;;;;;34.88;19.75;;;;;;;;;;5034157;28;20037;-83
2024/01/18 13:32:39;;;;;;;34.13;19.77;;;;;;;;;;5036265;28;20041;-83
2024/01/18 13:35:05;;;;;;;33.90;19.58;;;;;;;;;;5038628;28;20029;-84
2024/01/18 13:37:30;;;;;;;34.88;19.45;;;;;;;;;;5039485;28;20732;-84
2024/01/18 13:39:56;;;;;;;32.10;19.17;;;;;;;;;;5030108;28;20039;-86
2024/01/18 13:42:21;;;;;;;33.15;19.17;;;;;;;;;;5032604;28;20098;-83
2024/01/18 13:44:46;;;;;;;33.22;19.63;;;;;;;;;;5025222;28;20052;-84
2024/01/18 13:47:12;;;;;;;33.60;18.63;;;;;;;;;;5037293;28;20029;-84
2024/01/18 13:49:38;;;;;;;37.17;20.10;;;;;;;;;;5032527;28;20041;-83
2024/01/18 13:52:04;;;;;;;31.77;19.00;;;;;;;;;;5016990;28;20537;-84
2024/01/18 13:54:31;;;;;;;37.30;20.88;;;;;;;;;;5034858;28;20072;-83
2024/01/18 13:56:56;;;;;;;34.90;20.08;;;;;;;;;;5034481;28;20187;-83
2024/01/18 13:59:22;;;;;;;37.10;18.25;;;;;;;;;;5033696;28;20195;-82
2024/01/18 14:01:48;;;;;;;31.02;17.83;;;;;;;;;;5034260;28;20040;-82
2024/01/18 14:04:13;;;;;;;33.08;18.95;;;;;;;;;;5033613;28;20030;-83
2024/01/18 14:06:39;;;;;;;29.85;17.60;;;;;;;;;;5035104;28;20037;-82
2024/01/18 14:09:07;;;;;;;29.63;18.20;;;;;;;;;;5032804;28;20033;-82
2024/01/18 14:11:33;;;;;;;36.50;19.17;;;;;;;;;;5032758;28;20044;-82